SMRA10 UAOL 242100
AAXX 24211
11012 35/// /2105 10156 20095 39703 40157 58001=
11022 35/// /3005 10169 20076 39774 40147 57001=
11035 35/// /2503 10162 20102 39907 40152 50000=
11101 35/// /1801 10140 20095 39651 40161 53002=
11121 35/// /0000 10140 20089 39488 40164 51015=
11126 35/// /1904 10060 20011 37777 48517 50001=
11130 35/// /0000 10140 20090 39588 40160 50003=
11155 35/// /2306 10089 20052 38386 48509 58005=
11171 35/// /1303 10098 20088 39181 40177 58001=
11190 32665 23403 10152 20099 39941 40156 50001 82500 333 82640=
11204 35/// /2701 10134 20095 39405 40175 53019=
11244 35/// /0602 10140 20117 39846 40166 50004=
11343 45/// /2508 10000 21015 36993 47106 58002=
11389 35/// /1902 10137 20109 39840 40158 57001=
11406 27981 /1902 10129 20063 39577 40149 57004 70011 333 60005 85/69 87/80 555 364// 50132 60132 70133 80118 90092=
11423 27981 /2704 10114 20060 39291 42785 58003 70011 333 60005 86/66 88/72 555 369// 50134 60133 70123 80092=
11457 25/70 /2403 10079 20058 38890 48496 58003 333 60005 555 387// 50119 60120 70110 80090=
11464 42985 42606 10118 20059 39184 42782 58006 81078 333 81361 83069 555 367//=
11487 25970 /2402 10131 20077 39545 40154 58002 333 60005 87/68 555 370// 50148 60146 70139 80123 90096=
11518 22981 52204 10132 20070 39716 40145 58003 84011 333 60005 84464 555 366//=
11520 27981 /9902 10147 20062 39788 40145 58001 70010 333 60005 87/70 555 357// 50160 60160 70157 80136 90110=
11546 25981 /2302 10141 20073 39683 40155 52002 333 6///5 81/74 555 364// 50150 60143 70150 80126 90106=
11567 22975 62003 10144 20073 39810 40146 58002 86070 333 60005 86361 555 363// 50145=
11603 25781 /0801 10124 20076 39672 40144 58002 333 60005 88/50 555 372// 50146 60140 70133 80110 90091=
11624 22970 72303 10138 20079 39864 40148 58001 80008 333 60005 87270 555 368// 50162=
11636 27/70 /3402 10119 20075 39492 42790 51002 70011 333 60005 555 374// 50159 60161 70154 80121 90107=
11652 22970 71601 10121 20093 39878 40152 50000 80008 333 60005 87269 555 383// 50146=
11659 27970 /1101 10124 20069 39530 40155 54000 70011 333 60005 81/71 555 369// 50143 60145 70119 80104 90094=
11669 22882 71702 10112 20059 39288 42779 57001 87010 333 60005 87457 555 370// 50131 60113 70112 80089 90064=
11679 27980 /9901 10128 20081 39675 40150 50001 70011 333 60005 81/69 83/73 85/81 555 373// 50147 60146 70143 80117 90096=
11692 22970 62401 10143 20071 39599 40151 54000 80008 333 60005 86271 555 362// 50144=
11723 22984 60802 10147 20077 39859 40149 51002 80001 333 60005 86073 555 363// 50169 60169 70157 80129 90105=
11766 27981 /2704 10123 20057 39284 42784 50000 70011 333 60005 82/63 87/68 555 364// 50141 60142 70132 80105=
11774 25981 /1002 10138 20089 39886 40152 51003 333 60005 85/68 87/72 555 372//=
11782 22970 71802 10148 20077 39844 40150 51003 80002 333 60005 87073 555 362// 50158 60159=
11787 27981 /2907 10081 20043 38673 48496 50001 70011 333 60005 87/72 91111 555 377// 50113 60111 70098 80075=
11801 42970 51602 10130 20085 39914 40164 50000 80006 333 85070 555 10162 374//=
11813 46/// /9901 10164 20091 39817 40154 54000=
11816 42980 59901 10162 20096 39997 40156 52002 80002 333 85070=
11819 46/// /2002 10160 20094 39947 40156 52003=
11826 46/// /1002 10146 20096 39958 40152 52003=
11841 42981 30000 10118 20081 39787 40156 51007 81041 333 81364 83070=
11855 45/80 /0000 10155 20090 39991 40152 52002=
11856 46/// /2601 10160 20097 39846 40154 52003=
11858 46/// /2502 10147 20097 30012 40160 52003=
11867 45/80 /0000 10139 20094 39846 40154 52005=
11880 46/// /0000 10146 20112 39989 40156 52005=
11903 42970 30000 10133 20080 39783 40154 51006 80001 333 83070=
11916 46/// /3109 10033 20020 37998 48487 57002=
11918 46/// /2502 10121 20072 39351 42785 52002=
11927 46/// /2301 10154 20114 39896 40150 52009=
11930 46/// /3010 10002 21073 37386 47075 57002=
11933 46/// /9901 10098 20014 38676 48496 52001=
11934 42982 72605 10132 20063 39349 42786 51005 81048 333 81363 87270=
11938 46/// /9901 10100 20050 39118 42785 52005=
11952 46/// /3404 10133 20066 39338 42783 52004=
11955 46/75 /0000 10128 20089 39785 40148 52004=
11958 46/// ///// 10116 20080 38757 48498 52003=
11968 42965 69901 10126 20107 39874 40149 50004 80006 333 86270=
11976 46/// /9901 10127 20099 39891 40149 52005=
11978 46/// /0000 10130 20114 30016 40143 52006=
11993 46/// /0000 10133 20110 39939 40150 52010=
12105 42980 82303 10108 20069 30060 40101 58004 80007 333 91205=
12115 42575 72607 10102 20052 30079 40093 50000 81536 333 91012 91116 91211=
12120 42981 22712 10103 20042 30084 40088 50003 81032 333 91119 91215=
12125 46/// /2606 10097 20032 30043 40091 50002 333 91115 91209 91307=
12135 42975 42606 10092 20038 30085 40089 50004 82038 333 91114 91209=
12160 42570 72705 10107 20030 39873 40095 51008 875// 333 91011 91112 91206=
12185 45/73 /2405 10126 20075 39952 40084 57002 333 91010 91110 91206 91305=
12195 42668 82204 10123 20066 39857 40078 58014 8453/ 333 91204=
12200 42472 52403 10112 20079 30100 40107 58005 83530 333 91110 91204=
12205 42666 82303 10113 20082 30108 40117 58005 8657/ 333 91204=
12210 47/// /2405 10112 20080 30046 40107 57003 700//=
12215 47/// /9903 10113 20083 39938 40106 54000 7////=
12230 45/59 /2402 10103 20091 30030 40119 57005 333 91203 91302=
12235 42667 62505 10105 20073 39901 40109 51003 83508 333 91111 91207=
12250 41757 52402 10104 20090 30033 40121 50001 71022 83508 333 91203=
12270 42461 72605 10104 20083 39936 40115 53001 83506 333 83613 91111 91207=
12272 42970 72303 10115 20080 39933 40097 52006 82038 333 91111 91206=
12280 42773 72404 10125 20078 39939 40093 57001 875// 333 91112 91205=
12285 47/// /2403 10116 20087 39996 40110 57002 700//=
12295 41962 82604 10127 20078 39921 40103 50001 72122 8807/ 333 91111 91205=
12300 42665 72402 10117 20093 30038 40126 58004 8253/ 333 91203=
12310 42670 82102 10121 20091 30064 40129 58009 875// 333 91203=
12330 41958 32202 10105 20091 30022 40129 58007 71011 80002 333 91205=
12345 45/63 /2503 10108 20094 39989 40131 58001 333 91204 91303=
12360 47/57 /2505 10110 20097 39991 40122 58001 710// 333 91112 91206 91305=
12375 41758 82502 10118 20106 30000 40128 50002 71062 8557/ 333 91206=
12385 41656 82602 10109 20095 39939 40127 50005 76162 885// 333 91110 91206=
12399 42967 82702 10138 20071 39952 40116 50000 80007 333 91203=
12400 42965 32302 10102 20090 39907 40140 58002 80001 333 91203=
12415 45/83 /2502 10126 20092 39995 40145 50000 333 91204 91302=
12418 45/65 /1902 10102 20088 30026 40138 58005 333 91202 91302=
12424 41782 72501 10131 20092 30000 40146 50005 72162 875// 333 91203=
12435 41765 72403 10112 20098 39971 40140 50001 70162 83538 333 91204=
12455 41766 82801 10122 20090 39907 40146 50009 76122 8457/ 333 91205=
12465 41668 82703 10116 20086 39921 40139 50002 70382 8353/ 333 91204=
12469 41670 72903 10131 20080 39915 40141 52010 72522 8493/ 333 91205=
12488 41670 83203 10135 20075 39984 40136 53011 72522 8597/ 333 91204=
12495 42975 82402 10133 20069 39843 40128 58004 8807/ 333 91202=
12497 42670 82303 10120 20090 39906 40121 58005 83507 333 91203=
12500 42665 71201 10119 20086 39740 40150 58001 8357/ 333 91202=
12510 42784 72512 10054 20020 38347 48468 58004 85078 333 91118 91214=
12520 42875 70401 10132 20087 39726 40150 54000 8707/ 333 91203 99050=
12530 42970 83401 10141 20082 39951 40147 51011 81037 333 91203=
12540 42973 72503 10139 20093 39902 40148 51004 85038 333 91203=
12550 45/74 /3103 10146 20079 39796 40146 53007 333 91205 91303=
12560 42970 82302 10148 20089 39814 40145 51004 8801/ 333 91202=
12566 42780 72002 10153 20099 39856 40142 50004 8157/ 333 91203=
12570 42970 80000 10125 20076 39827 40139 51002 8803/ 333 91201=
12575 45/62 /0000 10124 20081 39892 40142 50000 333 91201 91300=
12580 42880 72301 10137 20081 39882 40141 58001 85501 333 91202=
12585 45967 /2103 10139 20065 39873 40133 58002 333 91203 91302=
12595 45/70 /2303 10121 20068 39868 40134 58002 333 91204 91303=
12600 42982 72003 10129 20082 39679 40152 50005 80008 333 91203=
12625 42960 71501 10111 20066 39177 42791 54000 85007 333 91201=
12650 42482 72804 10043 20013 38003 48498 58002 83508 333 91009 91112 91208=
12660 47/56 /1801 10129 20106 39801 40150 51002 710// 333 91202 91301=
12670 42960 81003 10135 20088 39754 40147 58002 80007 333 91203=
12690 42979 51602 10123 20080 39653 40153 50002 82032 333 91202=
12695 47/// /2602 10150 20077 39814 40144 54000 700//=
12756 46/// /3501 10139 20103 39971 40155 50006 555 10079=
12766 46/// /3002 10130 20116 39787 40156 50007 555 10091=
12772 46/// /2802 10174 20093 39950 40142 50007=
12786 46/// /0000 10146 20110 30021 40146 51007 555 10079=
12805 46/// /2601 10149 20119 30019 40161 50001 555 10082=
12812 46/// /2101 10129 20118 39924 40166 50003 555 10093=
12815 46/// /2501 10149 20099 30013 40158 51002 555 10072=
12822 46/// /2300 10149 20107 48///=
12830 46/// /0000 10147 20105 39835 40169 50004 555 10076=
12836 46/// /0000 10138 20102 30011 40160 50005 555 10079=
12843 41980 32402 10160 20105 39994 40160 50006 70100 80002=
12846 46/// /1902 10149 20120 30037 40164 50007 555 10083=
12847 46/// /3501 10154 20132 30025 40157 50004 555 10087=
12851 46/// /2606 10126 20091 39011 42796 50004 555 10079 55112=
12866 46/// /2503 10148 20110 30043 40151 51012 555 10078=
12870 46/// /1401 10149 20105 39886 40155 52011 555 10075=
12882 46/// /2202 10151 20130 30022 40151 51008=
12892 46/// /1903 10158 20120 39978 40147 51005 555 10078=
12910 46/// /1801 10136 20115 39799 40171 50005 555 10087=
12915 46/// /1603 10166 20117 39880 40164 50004 555 10073=
12922 46/// /0601 10141 20125 30021 40166 50006 555 10090=
12925 46/// /3000 10137 20132 30002 40171 51009=
12935 41981 12002 10173 20124 30036 40165 50006 70200 80002 555 10073=
12942 46/// /0400 10162 20107 39934 40173 51006=
12950 41970 20000 10136 20115 30052 40170 51010 70300 80002 555 10087=
12960 46/// /0000 10118 20099 30035 40171 51010 555 10088=
12982 41980 12701 10152 20116 30067 40166 51011 70200 80002=
12992 46/// /2501 10157 20123 30055 40160 51011 555 10080=
13067 42960 03401 10175 20115 30049 40174 52014=
13160 42960 02001 10148 20129 30062 40168 50008=
13168 42970 02002 10176 20129 30070 40174 51011=
13173 42970 02602 10158 20129 30067 40164 51009=
13174 42970 02502 10165 20128 30067 40165 51012=
13180 42970 02701 10153 20119 30063 40171 52011=
13183 42965 01901 10132 20112 30068 40171 52011=
13262 42970 02501 10181 20152 30027 40171 51012=
13266 42970 02301 10149 20120 30073 40172 50008=
13269 42970 01801 10174 20151 39968 40176 52011=
13272 32970 33001 10182 20116 30056 40172 51012 80002=
13274 42970 30000 10188 20135 30014 40169 51013 80002=
13278 42970 20000 10154 20129 39958 40177 52010 80001=
13279 42982 03001 10145 20115 30024 40168 52010=
13285 42670 31101 10141 20130 30063 40163 52014 83500=
13289 41470 23105 10131 20100 39000 48518 51008 72990 82500=
13295 42970 22801 10189 20128 30104 40156 52019 81031=
13367 42570 61901 10136 20100 39020 48528 52010 86500=
13369 41580 53202 10123 20112 39012 48507 50012 72992 85500=
13370 42970 00000 10138 20127 39811 40178 52013=
13376 42980 12301 10170 20136 39918 40172 51017 81030=
13378 41960 00801 10053 20049 38312 48539 51002 70062=
13383 42970 41701 10164 20150 39969 40167 51013 80006=
13384 42970 30000 10153 20141 30023 40170 51013 80001=
13388 42980 20000 10180 20145 39926 40165 51014 82030=
13389 41670 21701 10166 20128 39894 40164 52010 70229 82500=
13397 41670 72701 10168 20086 39640 40159 50015 70196 87800=
13457 11970 20901 10131 20114 30173 40179 52009 60002 70211 80001=
13459 41670 11602 10152 20100 39442 40184 52011 70211 81200 333 81841=
13461 41970 00503 10155 20123 30177 40184 52011 70211 80000=
13462 41970 01301 10162 20082 30142 40182 52020 70211 80000=
13463 41970 03201 10180 20096 30122 40180 52021 70211 80000=
13489 42670 60402 10192 20104 39664 40161 51015 86500=
13493 41697 70504 10141 20092 39373 40165 52012 79596 87900 333 90013 96095 94092 94913 90204 96060 87996=
13571 42998 00000 10170 20060 39638 40156 52030=
13575 42898 13401 10143 20020 3//// 4//// 52002 81030 333 81398=
13578 42998 00201 10145 20097 39299 48515 50000=
13580 42998 00502 10132 20045 3//// 4//// 5////=
13581 42998 02704 10184 20038 39206 48498 51013 333 90122 91120 91527=
13583 42998 01601 10153 20012 39486 40162 51016=
13585 42998 00000 10156 20040 39390 40159 51012=
13586 32770 53602 10184 20116 39881 40161 52020 81530 333 81650 84359=
13588 42997 02703 10196 20060 39803 40150 52019=
13590 41698 63603 10179 20083 39179 48522 52008 72992 86500 333 86696 90123 96017=
13591 41698 52303 10194 20085 39773 40150 52015 71392 84830 333 82896 83696 96095 90105=
13592 42698 31801 10207 20109 30006 40154 51015 83500 333 83696=
13594 41698 71103 10172 20095 39570 40164 52022 76122 86530 333 86696 90007=
13595 41698 63601 10183 20102 3//// 4//// 5//// 70195 83840 333 83896 90225 96329 90317 90219 96050 90317=
13598 41698 73601 20088 39230 48513 52028 70196 87800 333 84696 84896 96096 90324=
13600 42960 01406 10160 20109 30121 40173 52008=
13601 42960 00000 10178 20107 30047 40165 54003=
13610 42960 02206 10190 20078 39727 40135 57010=
13611 42960 00000 10170 20131 30059 40148 54000=
13615 45973 /1802 10127 20096 30137 40183 50003 8////=
13619 42960 00000 10182 20057 39422 42814 52008=
13622 42965 30000 10170 20130 30156 40163 54003 80001=
13623 42960 01404 10176 20102 30171 40177 52011=
13624 42960 01406 10128 20108 30129 40168 52005=
13629 42960 03202 10180 20080 39139 42786 52011=
13632 42665 12204 10190 20127 30038 40199 54002 81100 333 81840=
13633 42963 40000 10178 20134 30137 40174 52012 84030 333 84360=
14240 42970 03501 10171 20118 30013 40164 52009=
14241 42980 00201 10168 20121 30038 40164 51009=
14284 42970 01001 10151 20102 30063 40169 51007=
14307 42980 00701 10115 20102 30098 40175 51010=
14317 42980 00401 10158 20123 30073 40174 53005=
14431 42965 01402 10133 20109 30088 40180 53011=
14444 42980 02801 10161 20111 30151 40176 51008=
14445 42970 12801 10183 20123 30021 40171 51006 81040 333 81399 92311=
14474 42975 01002 10142 20120 39993 40180 53005=
14542 42975 12901 10164 20130 39989 40173 51014 81041 333 81362 95900=
14549 46/// /1802 1//// 2//// 3//// 4//// 5////=
14648 42970 01701 10180 20128 30061 40177 52011=
14652 41980 12001 10074 20061 37985 48535 52005 72841 81040 333 81358=
14657 46/// /1000 10169 20120 30160 40172 52007=
15000 23/// /2802 10151 20133 39850 40159 51011 333 55300 60007 91004 91105=
15004 23/// /0800 10129 20121 39837 40167 51010 333 6///7 91002 91104=
15007 23/// /2501 10121 20109 39699 40162 50005 333 60007 91002 91104=
15010 22597 81803 10154 20143 30005 40153 51008 81447 333 60007 91003 91103=
15014 22798 73603 10151 20128 39936 40157 51010 87500 333 60007 91006 91106=
15015 22998 72101 10122 20101 39574 42792 50008 85578 333 60007 91002 91103=
15020 22597 73502 10152 20136 39959 40153 52006 83570 333 60007 91003 91103=
15023 21598 62901 10135 20116 39724 40142 50004 70282 83570 333 69957 91002 =
15025 23/// /2901 10155 20131 30015 40148 51007 333 60007 91004 91104=
15033 26/// /0901 10060 20055 38216 48507 51006 333 55300 0//// 20000 3//// 60027 91003 91107=
15042 26/// /1903 10167 20136 30004 40153 51007 333 55300 0//// 20000 3//// 60007=
15044 26/// /1801 10138 20109 39966 40159 51009 333 55300 0//// 20000 3//// 60007 91102=
15047 22998 71601 10123 20123 39736 40170 51012 87070 333 55300 0//// 20000 3//// 60007 91002 91103=
15056 22597 82507 10145 20118 39809 40152 52003 8457/ 333 55300 0//// 20000 =
15063 22997 01601 10147 20119 39811 40162 51009 333 60007 91002 91103=
15069 23/// /2002 10086 20075 39110 42798 51007 333 60007 91002 91102=
15073 23/// /2400 10136 20125 39704 40164 50003 333 60007 91001 91103=
15080 22997 01203 10142 20136 39996 40161 52009 333 60007 91003 91103=
15083 23/// ///// 10122 20120 39884 40164 51013 333 55300 0//// 20000 3//// 60007=
15085 22997 30501 10103 20103 39730 40170 51010 82041 333 60007 91001 91102=
15088 22198 53110 10039 20029 37975 48502 50005 82360 333 55300 0//// 20000 3//// 60007 91012 91113=
15090 21597 50400 10127 20123 30067 40159 54001 70288 85500 333 55300 10164 =
15094 26/// /2201 10115 20113 39697 40171 56005 333 55300 0//// 20000 3//// 60027=
15095 23/// /1202 10125 20116 39773 40172 51008 333 55300 0//// 20000 3//// 60007 91003 91103=
15099 23/// /2101 10122 20078 39516 42798 52013 333 553// 60007 910// 91103=
15107 23/// /0900 10104 20095 39376 42800 51011 333 60007 91002 91102=
15108 21/91 92805 10052 20050 38102 48505 51004 74544 333 55300 0//// 20000 =
15109 22597 82803 10133 20131 39735 40163 50002 8437/ 333 60007 91005 91105=
15111 23/// /1202 10129 20126 39894 40153 50003 333 69927 91003 91103=
15113 26/// /3202 10139 20136 39995 40156 56006 333 55300 0//// 20000 3//// =
15117 26/// /0402 10134 20134 39968 40165 51011 333 55300 0//// 20000 3//// 60007=
15118 23/// /1400 10047 20045 38927 48507 51011 333 60007 91001 91101=
15119 22299 42704 10054 20038 38169 48511 51008 81548 333 60007=
15120 22997 02102 10124 20120 39683 40171 51013 333 55300 10204 20000 3//// 60007 91003 91103=
15123 23/// /0602 10145 20129 39701 40173 51010 333 55300 0//// 20000 3//// 60007 91002 91102=
15124 26/// /3300 10114 20111 39642 40177 51009 333 60007 91000 91101=
15127 23/// /2201 10120 20101 39303 42799 51011 333 55300 0//// 20000 3//// =
15136 22998 02602 10150 20150 30045 40162 52011 333 55300 60007 91004 91104=
15138 22998 02501 10150 20106 39486 42801 51009 333 55300 0//// 20000 3//// 60007 91002 91102=
15143 26/// /0301 10137 20123 39666 40172 51010 333 55300 0//// 20000 3//// 60007 91102=
15145 22997 20601 10118 20110 39801 40173 51011 80001 333 60007 91002 91102=
15150 23/// /2201 10136 20131 39951 40161 50000 333 69927 91002 91102 15154 =
15154 21597 82901 10140 20140 30012 40152 58005 70282 8437/ 333 60077 91002 91102=
15160 23/// /1702 10127 20120 39834 40168 51013 333 60007 91003 91104=
15162 23/// /0000 10095 20090 39466 42804 51016 333 60007 91000 91101=
15163 25/70 /2702 10094 20041 38664 48520 51007 7000/ 333 55300 0//// 20000 3//// 60007=
15165 21999 02703 10156 20098 39553 42797 52008 70181 333 69907 91004 91105=
15168 26/// /0600 10138 20106 39555 42797 51010 333 60007 91001 91102=
15170 22998 73601 10133 20098 39396 42794 51012 87070 333 60007 91002 91104=
15179 26/// /2002 10176 20112 39616 40166 52007 333 55300 0//// 20000 3//// 60007 91103=
15182 23/// /1202 10127 20119 39954 40168 51012 333 60007 91003 91103=
15184 22997 02604 10108 20082 38833 48517 51009 333 60007 91005 91106=
15189 26/// /0400 10126 20121 39786 40165 51013 333 60007 91000 91101=
15194 23/// /3201 10127 20119 39875 40165 50011 333 60007 91002 91102=
15197 23/// /0203 10142 20131 39952 40159 51010 333 55300 0//// 20000 3//// =
15199 23/// /2902 10146 20122 30046 40149 52012 333 55300 60007 91002 91103=
15200 22998 02000 10126 20119 30022 40165 52010 333 60007 91001 91101=
15204 26/// /1100 10115 20102 39988 40178 51012 333 55300 0//// 20000 3//// 60007 91101=
15206 26/// /0902 10118 20110 39850 40179 51016 333 55300 0//// 20000 3//// 60007 91103=
15208 26/// /2701 10140 20130 39874 40169 51016 333 55300 0//// 20000 3//// 60007=
15209 26/// /1703 10134 20129 39768 40171 52014 333 55300 0//// 20000 3//// 60007 91104=
15215 23/// /3201 10134 20085 39573 42798 51011 333 55300 0//// 20000 3//// =
15217 23/// /1301 10157 20076 39501 42797 51009 333 60007 91002 91104=
15219 23/// /3102 10142 20118 30027 40150 50013 333 55300 60007 91004 91105=
15230 22997 12201 10133 20115 39887 40175 52017 80001 333 55300 10170 20000 3//// 60007 91001 91102=
15231 22997 02403 10160 20125 39848 40165 52014 333 60007 91005 91105=
15235 23/// /2900 10148 20148 39666 40172 52014 333 55300 60007 91001 91102=
15238 23/// /2301 10146 20094 39554 42797 51009 333 60007 91002 91102=
15245 26/// /2902 10154 20113 30069 40167 52010 333 55300 0//// 20000 3//// 60007 91103=
15247 22997 00900 10157 20130 30056 40160 52009 333 55300 10118 20000 3//// 60007 91000 91101=
15254 22997 52301 10085 20083 38563 48515 51011 82078 333 60007 91004 91106=
15260 22598 33001 10122 20108 39647 40174 51014 82340 333 60007 91001 91102=
15261 23/// /1701 10115 20096 39366 42812 52010 333 55300 0//// 20000 3//// =
15262 22699 72808 10054 20044 38222 48505 50000 87070 333 55300 0//// 20000 =
15264 22597 63403 10170 20126 30092 40162 51018 82476 333 60007 91006 91107=
15265 23/// /3304 10161 20130 30084 40158 51019 333 55300 0//// 20000 3//// =
15270 23/// /1402 10136 20128 30022 40172 52012 333 55300 60007 91003 91103=
15277 26/// /2005 10117 20111 39563 42797 52013 333 55300 60007 91006 91107=
15279 22497 80108 10047 20047 37958 48504 52004 883// 333 60007 91011 91111=
15280 21093 83007 10013 20013 37529 47090 52002 74142 885// 333 553// 0//// =
15284 22998 63206 10073 20061 38369 48505 54001 86070 333 60007 91008 91108=
15285 23/// /3605 10136 20087 39186 42793 50005 333 55300 0//// 20000 3//// 60007 91007 91107=
15289 23/// /2901 10154 20118 30069 40170 52009 333 55300 0//// 20000 3//// 60007 91002 91103=
15292 22998 01402 10136 20112 39885 40174 51011 333 60007 91003 91103=
15296 27/40 /2400 10110 20110 39472 42807 52013 7101/ 333 55300 0//// 20000 3//// 60007=
15297 26/// /3302 10070 20041 38678 48/// 52008 333 55300 0//// 20000 3//// 60007 91105=
15300 22997 82003 10142 20108 39544 42799 51014 84077 333 60007 91004 91104=
15301 22998 80403 10100 20069 38644 48526 52007 80007 333 55300 0//// 20000 =
15302 22598 71100 10103 20075 38941 48506 51008 82370 333 55300 0//// 20000 =
15307 25/70 /0203 10170 20129 39969 40151 52016 7000/ 333 55300 0//// 20000 =
15310 21598 53502 10167 20136 30066 40150 51015 72582 82960 333 55300 0//// =
15314 22998 21802 10143 20128 39838 40171 52009 80002 333 60007=
15315 22998 03602 10101 20060 38601 48531 52005 333 60007 91003 91104=
15316 26/// /0605 10100 20052 38562 48518 52005 333 55300 0//// 20000 3//// 60007=
15317 22298 33610 10044 20032 37847 48525 52006 83300 333 55300 0//// 20000 3//// 60007 91012 91113=
15319 26/// /3501 10108 20080 39514 42/// 52014 333 55300 0//// 20000 3//// 60007 91102=
15320 23/// /0101 10087 20066 38469 48519 52007 333 60007 91003 91106=
15324 27/50 /2801 10099 20097 39376 42794 51007 7101/ 333 55300 0//// 20000 =
15325 22998 43602 10091 20054 38495 48506 52006 80001 333 60007 91005 91105=
15328 26/// /1401 10151 20110 39809 40152 51008 333 55300 0//// 20000 3//// =
15333 22597 80103 10184 20122 30128 40146 53013 8657/ 333 60007 91005 91108=
15335 22597 52001 10162 20140 30137 40143 51007 84960 333 60007 91002 91103=
15336 25/62 /3601 10167 20156 30135 40141 50004 7000/ 333 55300 0//// 20000 =
15337 23/// /3003 10205 20110 39943 40140 50006 333 60007 91004 91105=
15338 22997 00402 10156 20109 39806 40173 52008 333 60007 91004 91105=
15340 22997 60601 10140 20130 39920 40164 52014 82046 333 60007 91001 91102=
15341 25/60 /2401 10122 20122 39856 40157 52016 7000/ 333 55300 0//// 20000 3//// 60007=
15344 22997 43402 10129 20075 39545 42795 52007 84070 333 55300 0//// 20000 3//// 60007 91003 91104=
15345 26/// /3402 10139 20093 39523 42795 52010 333 55300 0//// 20000 3//// 60007=
15346 22597 63601 10135 20127 39879 40163 51011 83570 333 60007 91002 91103=
15347 26/// /3201 10109 20106 39632 40167 51008 333 55300 0//// 20000 3//// 60007=
15349 23/// /3301 10120 20090 39615 40162 52007 333 55300 0//// 20000 3//// =
15350 22997 60704 10180 20125 30037 40153 52012 86070 333 60007 91007 91107=
15360 22998 72002 10167 20147 30125 40138 50005 87070 333 60007 91003 91103 =
15364 23/// /0701 10133 20120 39874 40181 51014 333 60007 91001 91101=
15366 23/// /0700 10166 20119 39936 40162 52015 333 60007 91001 91104=
15369 23/// /0301 10105 20105 39851 40172 52013 333 55300 0//// 20000 3//// 60007 91002 91102=
15373 22997 33402 10133 20126 39776 40152 51010 80001 333 60007 91004 91105=
15375 22997 43304 10121 20115 39800 40155 52004 81041 333 60007 91005 91106=
15377 22997 21001 10148 20099 39935 40147 52008 82060 333 60007 91002 91103=
15387 26/// /1901 10159 20127 30143 40147 53008 333 55300 0//// 20000 3//// =
15388 23/// /0502 10170 20132 30069 40168 52012 333 60007 91004 91104=
15395 22597 73404 10148 20115 39829 40163 52012 83370 333 60007 91006 91106=
15402 23/// /2402 10174 20112 30070 40143 51007 333 55300 0//// 20000 3//// =
15405 22997 03603 10164 20133 30081 40142 51009 333 55300 0//// 20000 3//// =
15406 23/// /0203 10170 20146 30086 40132 50004 333 60007 91004 91104=
15408 23/// /0902 10179 20142 39879 40138 51004 333 55300 60007 91003 91105=
15409 23/// /0903 10181 20115 30091 40139 50001 333 55300 0//// 2//// 3//// =
15410 22997 41800 10185 20107 30067 40159 52019 84030 333 60007 91001 91103=
15412 26/// /0202 10155 20097 39796 40168 52015 333 55300 0//// 20000 3//// 60007 91103=
15416 23/// /2002 10140 20125 39906 40157 51015 333 60007 91003 91106=
15419 23/// /3001 10139 20125 39964 40156 53003 333 60007 91004 91104=
15420 22997 33001 10128 20118 30036 40146 51009 83030 333 55300 0//// 20000 =
15421 23/// /3201 10154 20122 30046 40155 50011 333 55300 0//// 20000 3//// =
15422 22997 33501 10160 20127 30051 40150 52008 83050 333 55300 60007 91002 =
15425 22997 43603 10186 20127 30075 40137 53005 80008 333 60007 91004 91106=
15428 21597 71204 10144 20125 30133 40137 50001 71798 87900 333 55300 10132 20000 3//// 69967 91006 91106 92437=
15434 22597 33402 10142 20127 39953 40160 51016 83300 333 60007 91004 91104=
15444 23/// /0103 10182 2//// 30061 40129 51004 333 55300 60007 91005 91106=
15445 23/// /3401 10184 20120 30033 40138 50002 333 55300 60007 91002 91103=
15450 22597 60103 10150 20115 39926 40156 51015 82366 333 55300 10182 20000 3//// 60007 91004 91105=
15455 26/// /2702 10165 20113 30025 40153 55001 333 55300 0//// 20000 3//// =
15460 22997 72502 10185 20125 30116 40139 53008 85078 333 60007 91004 91108=
15462 22597 63400 10164 20124 30048 40133 50001 86500 333 60007 91001 91102=
15465 26/// /0702 10179 20105 30080 40150 50015 333 55300 0//// 20000 3//// 60007=
15469 23/// /3603 10161 20120 30029 40157 51016 333 60007 91005 91107=
15470 21997 53401 10164 20125 30028 40150 53009 70192 85070 333 60007 91002 =
15475 22997 00602 10156 20130 30121 40141 50008 333 55300 0//// 20000 3//// =
15479 23/// /2301 10193 20103 39946 40133 50000 333 60007 91001 91102=
15480 22997 30000 10162 20107 30116 40133 50002 83060 333 60007 91002 91103 =
15482 23/// /3001 10189 20105 30080 40153 51019 333 60007 91002 91104=
15489 21597 43402 10152 20117 30057 40149 55000 70191 82303 333 60007 91004 =
15490 21997 51601 10182 20130 30109 40147 50001 70192 80006 333 55300 0//// 20000 3//// 60007 91002 91103=
15491 22597 32802 10179 20119 30114 40144 55007 83300 333 60007 91003 91103=
15494 21597 82301 10183 20122 30111 40155 51023 70292 8497/ 333 60007 91004 91104=
15498 23/// /1801 10168 20141 30103 40144 55009 333 69947 91002 91103=
15499 23/// /1703 10144 20132 30123 40132 58003 333 55300 60007 91005 91105=
15502 42970 50000 10168 20144 30111 40149 51022 80006 333 10204 20168 555 586//=
15525 41565 82004 10165 20118 39892 40149 58002 70398 8257/ 333 10211 20158 555 57401 69099=
15549 42970 30000 10163 20146 39740 40142 52007 83030 333 10203 20160 555 59=
15552 42965 00000 10149 20112 30090 40138 54000 333 10172 20149 555 578// 92=
15600 41281 80000 10092 20029 38352 48545 53011 71398 884// 333 10116 20078 555 565// 69099=
15614 41662 71101 10156 20126 39486 40169 52029 79592 87900 333 10222 20154 555 58206 69499=
15615 41/84 32508 10013 21022 37179 47129 50000 70100 82903 333 10028 20010 555 577//=
15640 42972 23209 10218 20144 39845 40142 52010 82030 333 10222 20194 555 56=
15655 42968 60000 10162 20116 30107 40139 53008 80006 333 10162 20154 555 57=
15712 41678 60903 10236 20064 39918 40156 53030 72991 86900 333 10248 20210 555 53300 62299=
15730 41970 82901 10169 20140 39765 40148 52008 71322 84077 333 10206 20166 =
16133 46/// ///// 10170 20136 30157 40167 52009 333 55079 555 11925 20175 3//13 4//// 5//// 61502 1/133 21111 31111 411// 50011 61111 7////=
16271 46/// /1905 10203 20120 30147 40182 52007 333 55160 23401 555 20203 3//11 41905 51901 61907 1/134 21111 31111 411// 51111 61111 7////=
16318 46/// /2501 10135 20061 39670 40201 52006 333 55160 20000 555 20126 3//10 42601 51100 62402 1/135 21111 31111 411// 51111 61101 7////=
16464 46/// /2702 10190 20131 30194 40198 52010 333 55127 22756 555 20181 3//80 42702 50600 62703 1/155 21111 31111 411// 51111 61111 7////=
17031 41658 20000 10094 20077 30167 40173 57006 71000 82100 333 82836 91104=
17063 42960 00404 10180 20104 30036 40152 50004 333 91106=
17064 42960 00000 10170 20111 30126 40147 50004 333 91103=
17066 42970 01001 10176 20127 30062 40151 50004 333 91103=
17072 42970 00301 10151 20097 39983 40154 51007 333 91103=
17077 42970 02601 10141 20085 39608 40165 52010 333 91104=
17080 42965 01201 10125 20037 39297 40144 52010 333 91104=
17095 42970 02302 10076 21030 38157 48518 52006 333 91104=
17118 42960 00502 10115 20088 39879 40150 52009 333 91105=
17119 42970 01801 10143 20109 30146 40151 51004 333 91102 92417=
17127 42965 03207 10105 20018 39208 40155 52010 333 91112=
17131 42960 01401 10123 21006 39229 40151 52010=
17135 42970 01202 10121 21010 39295 40142 52009 333 91105=
17143 42960 00000 10137 20101 30138 40154 51003 333 91105=
17155 42970 02402 10144 20062 39071 40144 52011 333 91105=
17165 42970 00301 10125 20031 39053 40142 52006=
17185 42970 00000 10065 20016 39168 40155 52009 333 91108=
17189 42970 01902 10078 20002 39030 48510 52008 333 91110=
17192 42975 00703 10144 20013 39073 40140 52005 333 91107=
17197 42960 02005 10183 20000 39101 40119 54000=
17208 42970 02105 10068 20017 38239 48535 52001 333 91107=
17221 42970 00902 10170 20079 30137 40143 51003 333 91111 92418=
17232 42970 01703 10171 20124 30118 40148 50005 333 91104 92418=
17238 42670 43302 10170 20020 39061 40115 52009 82130 333 82835 84360 91111=
17241 42670 23607 10144 20026 39165 40134 52009 82100 333 82835=
17246 42970 00000 10133 20014 39009 48518 50005 333 91108=
17256 42970 00807 10153 20071 39545 40141 52005 333 91110=
17257 42970 02608 10138 20035 39193 40141 52012 333 91114=
17271 42960 01603 10172 20010 39226 40137 51003 333 91107=
17291 42960 00000 10132 20104 30140 40153 50004 333 91105=
17296 42970 20301 10175 20102 30133 40137 51001 82030 333 82360 91103 92408=
17302 42570 23502 10187 20095 30078 40133 56002 82100 333 82830 91105 92428=
17310 42970 00301 10191 20156 30117 40124 58006 333 91102 92428=
17355 42970 01104 10181 20089 30023 40138 51002 333 91108=
17371 42970 03502 10157 20108 30051 40156 53003 333 91110=
17501 42960 01808 10176 20117 30108 40127 50001 333 92427=
17505 41959 00803 10169 20155 30027 40138 50004 71000=
17515 42460 42204 10169 20148 39971 40144 50004 84600 333 84715=
17521 42960 02911 10174 20149 39980 40112 58003=
17530 42960 02005 10155 20120 30073 40129 50002=
17535 42960 03204 10164 20061 30074 40110 58004=
17550 42960 00504 10175 20108 39980 40123 50001 333 92437=



SMUS10 KWBC 242100
AAXX 24214
16008 42962 00000 10096 20031 38549 48508 53013=
16020 42965 01302 10178 20106 39883 40159 53020=
16021 42960 01105 10060 20053 38022 48531 53001 333 92852=
16022 42665 41811 10060 20045 37891 48517 54000 81201 333 81835 92855=
16052 42960 00609 11020 21260 36685 47121 57001=
16059 32965 00202 10189 20125 39813 40171 52016=
16061 42982 00303 10180 20125 39342 42794 53004=
16066 32970 02304 10186 20101 39892 40171 52014=
16076 42960 00104 10177 20128 39886 40167 53010=
16080 42965 02606 10199 20088 30042 40163 53012=
16088 42960 00203 10184 20131 30046 40161 53007=
16098 42965 00304 10168 20152 30115 40165 53007=
16099 32960 03603 10179 20152 30145 40167 52013=
16105 32965 01604 10191 20160 30162 40165 52010=
16108 32960 00101 10139 20113 30154 40169 52006=
16110 42998 00402 10168 20104 30162 40166 52001 555 0////=
16120 42980 00204 10167 20107 30182 40186 51006 333 98580 555 0200/=
16134 42980 02307 10080 20021 37868 48532 56001 333 92835=
16140 42980 02108 10209 20091 30110 40160 54000=
16148 42970 00000 10152 20144 30152 40164 53005=
16149 42965 01903 10168 20150 30150 40166 54001=
16153 41195 80109 10160 20154 39928 40190 51008 71022 885// 333 83702 86610 555 0////=
16158 42960 01403 10154 20149 30188 40196 51008=
16170 32965 00801 10161 20119 30136 40188 52016=
16179 42980 00205 10186 20033 39499 42801 54000=
16206 42970 01302 10152 20131 30180 40188 51006=
16214 46/// /1004 10171 20140 30190 40195 50007 333 55300 20160=
16219 46/// /3600 1//// 2//// 3//// 4//// 5////=
16224 46/// /2302 10140 20120 39884 40200 50006 333 55300 20000=
16230 32970 12303 10160 20123 30161 40178 52003 81070 333 81360=
16239 32970 11203 10137 20091 30042 40199 52006 80001 333 81070=
16242 42975 01202 10135 20113 30192 40197 53006=
16245 42962 00402 10138 20133 30165 40191 53002=
16252 42960 00000 10162 20162 39270 42826 51006=
16253 42965 30902 10150 20134 30180 40192 50004 80001=
16258 42970 02204 10168 20085 39213 42814 55001=
16263 42962 23112 10122 20071 38959 48530 53006 80002=
16270 42960 02206 10164 20089 30112 40176 50004=
16280 42997 02603 10170 20148 39967 40186 53003 555 0////=
16289 42960 00701 10169 20146 30114 40197 50004=
16294 42998 00000 10170 20154 30012 40203 54000 555 0////=
16310 42997 00000 10170 20145 39970 40189 56003 555 0////=
16312 42960 01802 10144 20121 39765 40178 51002=
16320 32965 09902 10179 20137 30162 40179 52007=
16325 42998 03601 10158 20138 30163 40177 51005 333 98075 555 0////=
16332 42960 20000 10140 20124 30118 40182 51004 80001=
16344 42960 20407 10114 20111 38356 48534 54000 80001 333 95000 95100=
16360 42997 02403 10182 20156 30043 40176 51006 555 0////=
16362 41556 21301 10131 20123 30185 40201 50005 71011 82205 333 82820=
16405 32960 09901 10177 20110 30169 40193 52008=
16420 42997 42201 10188 20085 30124 40188 53001 80001 555 0////=
16429 42962 01103 10140 20134 30182 40193 51006=
16459 42960 02405 10146 20138 30163 40198 53008=
16460 32960 02903 10169 20108 30181 40195 52010=
16520 32965 00203 10155 20127 30149 40181 52005=
16522 42998 00407 10180 20135 39941 40181 53001 555 0////=
16531 32970 01702 10142 20125 30172 40186 52007=
16546 42960 00903 10160 20133 30152 40180 53006=
16550 42998 02305 10196 20111 30008 40184 51005 555 0////=
16560 32980 01704 10185 20120 30182 40186 52008=
16564 42997 00710 10178 20089 30042 40182 53004 555 0////=
16614 46/// /3103 10158 20054 39420 40178 52010 333 91112=
16622 42560 59903 10154 20087 30152 40153 52009 81141 333 81830 83358 91108=
16641 42960 40000 10162 20137 30169 40174 51009 80001 333 91106 555 40000 47660 44230 50000 50148=
16643 42560 42604 10158 20155 30186 40191 52010 82201 333 82825 83068 91108 555 40000 47672 44220 50000 50156=
16648 42960 10000 10160 20083 30067 40150 50015 80001 333 91107=
16650 46/// /9902 10122 20101 30150 40150 52003 333 91106=
16675 46/// /9904 10157 20071 30139 40152 52007 333 91107=
16682 42960 20000 10142 20127 30171 40181 52006 80001 333 91104=
16684 42960 20000 10144 20081 30127 40137 52007 80001 333 91104=
16710 46/// /0000 10112 20033 39433 40200 52009 333 91104=
16716 46/// /9902 10200 20047 30111 40160 52006 333 91106=
16732 46/// /3603 10186 20071 30148 40159 52003 333 91105=
16742 42560 23005 10164 20143 40146 51004 81101 333 91112 555 40000 47531 44=
16746 42960 02905 10152 20131 39983 40163 50001 333 91107 555 40000 47520 44215 50000 50140=
16749 42560 32409 10180 20142 30127 40140 50000 81105 333 91115 555 40000 47=
16754 42960 01807 10140 20056 30115 40162 50001 333 91112 555 40000 47621 44=
16760 46/// /9902 10149 21022 39762 40175 52003 333 91107=
16765 47/// /3011 10173 20153 30127 40146 57004 7414/ 333 91122 555 60000 65=
17022 42970 11203 10182 20066 39994 40154 51001 80001 333 81070 91107 92428=
17030 42970 02701 10121 20074 30169 40174 58006 333 91103 92428=
17034 42970 00000 10127 20093 30133 40179 57013 333 91104 92428=
17038 42970 01202 10136 20096 30132 40179 57011 333 91110 92428=
17050 42970 03502 10185 20090 30079 40139 52012 333 91107=
17052 42970 00902 10173 20082 39876 40142 52006 333 91104=
17056 42970 02802 10149 20113 30146 40150 50001 333 91105 92418=
17060 42960 01902 10164 20116 30116 40155 51006 333 91110=
17068 42960 00000 10082 20082 30073 40156 50004=
17069 42970 00000 10157 20105 30109 40145 50004 333 91103=
17082 42960 02604 10107 20065 39555 40160 52012 333 91113=
17084 42970 00000 10103 20026 39278 40158 52011 333 91108=
17085 42970 03103 10155 20077 39687 40160 52014 333 91117=
17086 42970 00904 10134 20064 39461 40152 52006 333 91112=
17092 42960 03003 10110 20006 38877 48520 52010 333 91109=
17096 42960 03402 10012 21045 38265 48526 52006 333 91107=
17098 42960 03503 10028 21051 38229 48531 52007 333 91112=
17099 42970 00000 10051 20008 38383 48517 52008 333 91105=
17115 42960 02801 10097 20074 30106 40156 51008 333 91106=
17116 42965 00501 10145 20087 30031 40148 52008 333 91105=
17120 42970 02604 10167 20062 39529 40139 50003 333 91107=
17124 42960 03005 10135 20061 39267 40150 52008 333 91107=
17128 42970 03401 10096 20002 39093 40161 52010 333 91106=
17129 42960 01101 10101 21003 39242 40157 52011 333 91107=
17130 42970 00506 10139 21003 39150 40142 52008 333 91109=
17140 42965 00601 10098 20012 38720 48513 51003 333 91105=
17150 42960 02201 10137 20084 30039 40159 52010 333 91106=
17160 42970 03304 10130 20000 39015 48507 52005 333 91108=
17170 42960 00000 10078 20003 38360 48527 50003 333 91111=
17180 42970 02604 10204 20137 30141 40145 51005 333 91110 92418=
17184 42970 02101 10179 20060 30035 40142 52010 333 91104=
17186 42970 02202 10193 20083 30056 40139 51006 333 91103=
17193 42970 01901 10120 21004 38773 48527 52005 333 91107=
17195 42970 00605 10098 20008 38980 48517 52010 333 91107=
17200 42960 01904 10111 20026 39191 40141 52006 333 91110=
17202 42970 02307 10099 20016 39140 40148 52005 333 91110=
17203 42970 00000 10110 20019 38899 48565 52008 333 91103=
17218 42960 00000 10159 20099 30148 40154 52006 333 91105=
17219 42965 03603 10169 20095 30011 40151 50007 333 91115=
17220 42970 03602 10172 20086 30114 40148 52006 333 91108 92418=
17234 42970 02801 10183 20114 30073 40139 52007 333 91111=
17237 42970 01802 10193 20029 39649 40131 52014 333 91106=
17240 42570 20000 10108 20058 39033 40141 51007 82100 333 82830 91103=
17244 42970 01607 10132 20015 39001 48517 52008 333 91112=
17248 42670 40801 10139 20022 38982 48512 50003 84200 333 84840 91106=
17250 42970 00201 10123 20009 38815 48519 52007 333 91106=
17260 42960 02604 10101 20063 39353 40147 51003 333 91105=
17280 42970 00904 10130 20052 39387 40150 52006 333 91109=
17292 42970 01102 10138 20098 39406 40134 50001 333 91104=
17295 42960 30000 10163 20133 30138 40145 50000 80001 333 83070 91106=
17298 42670 32901 10181 20130 30124 40143 50001 83200 333 83840 91107 92408=
17300 42960 03405 10165 20102 30075 40144 56001 333 91107=
17320 42970 02802 10187 20098 30121 40126 50000 333 92428=
17330 17140 42965 00601 10098 20012 38720 48513 51003 333 17350 42960 00305 =
17340 42970 03601 10204 20056 30122 40130 58002 333 92418=
17350 42960 00305 10157 20107 30050 40126 50000=
17352 42960 00303 10187 20127 30104 40128 58002=
17370 42965 00000 10207 20112 30128 40132 58003 333 91102 92427=
17375 33088 42997 30000 10092 20064 39938 40126 58002 80004 555 1/008=
17600 42970 03606 10176 20131 30106 40115 51001 80000=
17601 42982 02904 10175 20124 30081 40112 58004 333 55300 2////=
17609 42975 03308 10200 20087 30109 40113 56005 80000=